Time;durP1;ratioP1;P1;durP2;ratioP2;P2;SDS_P1;SDS_P2;PMS_P1;PMS_P2;Temp;Humidity;BMP_temperature;BMP_pressure;BME280_temperature;BME280_humidity;BME280_pressure;Samples;Min_cycle;Max_cycle;Signal;HPM_P1;HPM_P2
2021/12/14 00:01:14;;;;;;;9.55;6.88;;;;;;;7.17;94.74;102679.16;4877581;29;20049;-84
2021/12/14 00:03:43;;;;;;;13.38;7.47;;;;;;;7.15;95.08;102670.31;4862116;29;20047;-84
2021/12/14 00:06:10;;;;;;;10.95;7.47;;;;;;;7.16;94.65;102672.09;4877679;29;20024;-84
2021/12/14 00:08:47;;;;;;;9.18;6.68;;;;;;;7.15;94.92;102669.44;4879238;29;20499;-84
2021/12/14 00:12:10;;;;;;;9.38;7.28;;;;;;;7.16;94.80;102658.03;4877358;29;20037;-84
2021/12/14 00:15:01;;;;;;;9.00;6.30;;;;;;;7.15;94.40;102659.78;4873605;29;20045;-84
2021/12/14 00:17:01;;;;;;;9.65;6.85;;;;;;;7.18;94.49;102665.09;4876543;29;20504;-84
2021/12/14 00:19:28;;;;;;;9.75;7.03;;;;;;;7.22;94.58;102681.84;4878293;29;20029;-84
2021/12/14 00:22:02;;;;;;;10.27;7.10;;;;;;;7.13;94.08;102674.66;4873452;29;20037;-84
2021/12/14 00:24:28;;;;;;;9.40;6.85;;;;;;;7.16;94.74;102685.25;4875285;29;20454;-84
2021/12/14 00:27:02;;;;;;;9.75;6.28;;;;;;;7.18;94.89;102682.66;4877363;29;20322;-84
2021/12/14 00:29:34;;;;;;;10.30;6.93;;;;;;;7.16;94.29;102679.97;4870055;29;20037;-84
2021/12/14 00:32:06;;;;;;;11.15;7.22;;;;;;;7.18;94.81;102688.81;4861918;29;20033;-84
2021/12/14 00:34:41;;;;;;;10.45;7.20;;;;;;;7.13;95.57;102672.03;4878772;29;20029;-84
2021/12/14 00:37:22;;;;;;;10.50;7.15;;;;;;;7.18;95.04;102688.81;4861159;29;20192;-84
2021/12/14 00:39:51;;;;;;;10.43;6.90;;;;;;;7.11;95.34;102687.78;4858589;29;20494;-84
2021/12/14 00:42:17;;;;;;;9.32;6.90;;;;;;;7.11;95.10;102695.69;4858833;29;20040;-84
2021/12/14 00:44:45;;;;;;;10.48;7.00;;;;;;;7.10;95.27;102699.19;4859166;29;20190;-84
2021/12/14 00:47:11;;;;;;;12.25;7.20;;;;;;;7.13;95.07;102698.38;4861769;29;20033;-84
2021/12/14 00:49:38;;;;;;;11.02;8.07;;;;;;;7.11;95.41;102705.34;4858524;29;20033;-84
2021/12/14 00:52:06;;;;;;;9.95;7.63;;;;;;;7.15;95.19;102720.38;4853888;29;20068;-84
2021/12/14 00:54:32;;;;;;;11.23;7.85;;;;;;;7.18;95.78;102724.81;4876497;29;20025;-84
2021/12/14 00:56:58;;;;;;;12.68;7.88;;;;;;;7.15;95.51;102717.75;4861233;29;20045;-84
2021/12/14 00:59:23;;;;;;;10.88;8.18;;;;;;;7.08;95.45;102714.06;4861483;29;20048;-84
2021/12/14 01:01:58;;;;;;;10.95;8.02;;;;;;;7.11;96.20;102715.88;4861451;29;20116;-84
2021/12/14 01:04:37;;;;;;;14.15;8.32;;;;;;;7.09;95.85;102707.94;4861498;29;20449;-84
2021/12/14 01:07:05;;;;;;;12.20;7.65;;;;;;;7.11;95.99;102697.44;4861156;29;20070;-84
2021/12/14 01:09:35;;;;;;;9.55;7.75;;;;;;;7.12;95.51;102691.31;4861189;29;20108;-84
2021/12/14 01:12:11;;;;;;;10.50;7.35;;;;;;;7.10;96.05;102693.91;4876931;29;20060;-84
2021/12/14 01:15:00;;;;;;;12.45;8.73;;;;;;;7.05;95.65;102687.66;4876741;29;20032;-84
2021/12/14 01:17:54;;;;;;;9.52;7.43;;;;;;;7.06;95.67;102691.19;4877554;29;20048;-84
2021/12/14 01:20:30;;;;;;;11.15;8.52;;;;;;;7.06;95.40;102685.91;4877908;29;20093;-84
2021/12/14 01:23:00;;;;;;;15.70;9.73;;;;;;;7.14;95.45;102720.31;4858062;29;20069;-84
2021/12/14 01:25:35;;;;;;;12.93;8.73;;;;;;;7.06;95.93;102701.72;4869181;29;20037;-84
2021/12/14 01:28:06;;;;;;;13.10;8.07;;;;;;;7.04;95.89;102684.97;4860793;29;20051;-84
2021/12/14 01:31:13;;;;;;;11.80;8.50;;;;;;;7.08;96.64;102689.47;4860915;29;20485;-84
2021/12/14 01:33:38;;;;;;;14.15;8.20;;;;;;;7.05;95.97;102679.75;4875333;29;20069;-84
2021/12/14 01:36:12;;;;;;;14.27;8.50;;;;;;;7.04;96.02;102674.44;4860693;29;20048;-84
2021/12/14 01:38:48;;;;;;;12.85;8.07;;;;;;;7.06;95.93;102678.00;4862452;29;20075;-84
2021/12/14 01:41:16;;;;;;;13.15;8.82;;;;;;;7.03;96.05;102681.47;4864362;29;20036;-84
2021/12/14 01:43:45;;;;;;;11.27;8.48;;;;;;;7.03;96.14;102681.47;4864671;29;20059;-84
2021/12/14 01:46:25;;;;;;;11.60;8.52;;;;;;;7.01;96.51;102675.28;4865102;29;20041;-84
2021/12/14 01:49:02;;;;;;;12.43;8.50;;;;;;;7.01;96.34;102674.38;4877534;29;20037;-84
2021/12/14 01:51:57;;;;;;;17.75;9.35;;;;;;;7.00;96.62;102678.78;4872191;29;20523;-84
2021/12/14 01:54:32;;;;;;;11.68;8.18;;;;;;;6.97;96.71;102662.88;4846564;29;20033;-84
2021/12/14 01:57:02;;;;;;;13.57;8.60;;;;;;;6.97;96.55;102654.09;4861331;29;20061;-84
2021/12/14 01:59:35;;;;;;;11.40;8.13;;;;;;;6.97;96.35;102660.25;4861582;29;20033;-84
2021/12/14 02:02:20;;;;;;;12.75;8.90;;;;;;;6.99;96.24;102665.56;4876508;29;20304;-84
2021/12/14 02:04:49;;;;;;;12.73;8.32;;;;;;;6.98;96.60;102653.25;4861539;29;20051;-84
2021/12/14 02:07:17;;;;;;;10.98;8.45;;;;;;;6.90;96.57;102634.66;4845372;29;20053;-84
2021/12/14 02:09:46;;;;;;;14.88;7.60;;;;;;;6.94;96.05;102649.66;4859822;29;20143;-84
2021/12/14 02:12:20;;;;;;;11.55;8.55;;;;;;;6.94;97.17;102638.22;4879195;29;20439;-84
2021/12/14 02:14:48;;;;;;;10.10;7.53;;;;;;;6.89;96.45;102638.13;4863791;29;20033;-84
2021/12/14 02:17:19;;;;;;;13.55;7.60;;;;;;;6.92;96.05;102656.63;4864078;29;20036;-84
2021/12/14 02:19:46;;;;;;;11.97;8.07;;;;;;;6.87;96.31;102653.91;4864442;29;20040;-84
2021/12/14 02:22:13;;;;;;;15.10;8.75;;;;;;;6.88;96.31;102654.78;4864031;29;20052;-84
2021/12/14 02:24:42;;;;;;;10.52;7.22;;;;;;;6.94;96.08;102654.03;4864120;29;20041;-84
2021/12/14 02:27:11;;;;;;;10.50;7.32;;;;;;;6.87;96.68;102651.28;4864383;29;20199;-84
2021/12/14 02:29:40;;;;;;;11.77;7.40;;;;;;;6.89;95.85;102657.44;4879412;29;20215;-85
2021/12/14 02:32:14;;;;;;;11.65;7.18;;;;;;;6.89;95.79;102652.16;4864080;29;20029;-84
2021/12/14 02:34:44;;;;;;;11.30;7.55;;;;;;;6.86;95.73;102661.75;4864063;29;20492;-84
2021/12/14 02:37:11;;;;;;;9.13;7.03;;;;;;;6.86;96.22;102672.28;4879072;29;20486;-84
2021/12/14 02:42:04;;;;;;;11.40;7.53;;;;;;;6.83;96.21;102661.69;4879031;29;20060;-84
2021/12/14 02:44:30;;;;;;;10.48;6.88;;;;;;;6.81;95.94;102659.03;4863609;29;20098;-84
2021/12/14 02:47:01;;;;;;;11.68;7.10;;;;;;;6.82;95.24;102657.28;4863224;29;20067;-84
2021/12/14 02:49:32;;;;;;;8.13;6.20;;;;;;;6.84;95.90;102653.81;4877696;29;20041;-84
2021/12/14 02:52:02;;;;;;;9.63;6.93;;;;;;;6.81;95.69;102639.72;4866471;29;20033;-84
2021/12/14 02:54:32;;;;;;;9.88;6.55;;;;;;;6.86;95.15;102643.31;4863629;29;20393;-84
2021/12/14 02:57:06;;;;;;;13.02;7.18;;;;;;;6.79;95.42;102637.03;4877955;29;20033;-84
2021/12/14 02:59:34;;;;;;;8.52;6.47;;;;;;;6.78;95.65;102640.53;4862626;29;20128;-85
2021/12/14 03:02:05;;;;;;;8.73;6.20;;;;;;;6.78;95.34;102648.44;4863398;29;20052;-84
2021/12/14 03:04:49;;;;;;;11.55;6.70;;;;;;;6.80;94.93;102638.81;4863061;29;20089;-85
2021/12/14 03:07:16;;;;;;;11.75;6.00;;;;;;;6.76;94.92;102628.19;4863415;29;20462;-85
2021/12/14 03:10:01;;;;;;;12.20;6.93;;;;;;;6.79;95.14;102621.22;4878891;29;20029;-85
2021/12/14 03:12:33;;;;;;;10.40;6.05;;;;;;;6.76;95.59;102622.91;4862994;29;20315;-85
2021/12/14 03:15:09;;;;;;;11.32;6.10;;;;;;;6.74;95.44;102595.66;4876074;29;20176;-85
2021/12/14 03:17:36;;;;;;;9.23;5.68;;;;;;;6.71;94.96;102606.13;4878198;29;20036;-85
2021/12/14 03:20:09;;;;;;;8.65;6.25;;;;;;;6.70;94.90;102610.50;4878414;29;20056;-85
2021/12/14 03:22:42;;;;;;;10.68;6.07;;;;;;;6.65;95.09;102609.50;4877954;29;20029;-85
2021/12/14 03:25:09;;;;;;;11.98;6.18;;;;;;;6.69;94.75;102613.97;4878086;29;20032;-85
2021/12/14 03:27:42;;;;;;;10.65;7.43;;;;;;;6.68;94.74;102617.47;4862451;29;20017;-84
2021/12/14 03:30:19;;;;;;;10.20;6.78;;;;;;;6.62;94.90;102605.03;4863308;29;20064;-85
2021/12/14 03:32:44;;;;;;;10.00;5.97;;;;;;;6.63;95.04;102617.38;4878065;29;20087;-85
2021/12/14 03:35:10;;;;;;;8.75;6.07;;;;;;;6.57;94.59;102598.78;4862991;29;20057;-85
2021/12/14 03:37:39;;;;;;;11.90;6.65;;;;;;;6.60;94.99;102597.97;4862726;29;20127;-85
2021/12/14 03:40:07;;;;;;;9.60;6.47;;;;;;;6.66;95.02;102608.66;4863349;29;20362;-85
2021/12/14 03:42:39;;;;;;;8.40;6.10;;;;;;;6.63;94.27;102605.97;4824887;29;20050;-85
2021/12/14 03:45:16;;;;;;;13.65;7.10;;;;;;;6.56;94.54;102618.09;4825053;29;20523;-85
2021/12/14 03:47:50;;;;;;;11.13;6.68;;;;;;;6.59;95.02;102631.31;4824935;29;20046;-84
2021/12/14 03:50:35;;;;;;;8.85;6.22;;;;;;;6.61;95.11;102639.25;4824865;29;20549;-89
2021/12/14 03:53:02;;;;;;;13.27;7.15;;;;;;;6.54;94.90;102635.56;4835431;29;20094;-90
2021/12/14 03:55:32;;;;;;;11.55;6.18;;;;;;;6.59;94.97;102648.84;4825013;29;20139;-90
2021/12/14 03:57:59;;;;;;;11.32;7.07;;;;;;;6.56;95.01;102654.06;4824961;29;20129;-89
2021/12/14 04:00:31;;;;;;;10.13;7.10;;;;;;;6.55;94.61;102654.88;4824268;29;20535;-89
2021/12/14 04:03:01;;;;;;;11.13;7.43;;;;;;;6.56;95.32;102668.09;4840056;29;20106;-89
2021/12/14 04:05:41;;;;;;;10.20;7.20;;;;;;;6.54;95.48;102666.28;4826255;29;20392;-89
2021/12/14 04:08:08;;;;;;;11.23;6.93;;;;;;;6.52;95.29;102662.72;4824749;29;20405;-89
2021/12/14 04:10:36;;;;;;;10.75;6.57;;;;;;;6.57;95.57;102671.63;4824602;29;20134;-89
2021/12/14 04:13:04;;;;;;;12.45;7.70;;;;;;;6.48;95.67;102651.25;4809640;29;20491;-89
2021/12/14 04:15:29;;;;;;;11.65;7.60;;;;;;;6.55;95.11;102660.16;4833559;29;20340;-90
2021/12/14 04:17:56;;;;;;;12.63;8.25;;;;;;;6.55;95.65;102657.53;4824431;29;20110;-89
2021/12/14 04:20:24;;;;;;;9.30;7.25;;;;;;;6.59;94.90;102664.66;4847716;29;20047;-90
2021/12/14 04:22:51;;;;;;;11.35;8.25;;;;;;;6.53;95.36;102649.59;4847979;29;20033;-90
2021/12/14 04:25:34;;;;;;;10.48;7.35;;;;;;;6.51;96.01;102642.53;4862324;29;20037;-90
2021/12/14 04:28:03;;;;;;;11.98;8.30;;;;;;;6.56;95.48;102660.19;4861679;29;20120;-89
2021/12/14 04:30:29;;;;;;;14.20;9.45;;;;;;;6.52;95.50;102652.19;4861800;29;20147;-89
2021/12/14 04:33:01;;;;;;;13.80;8.93;;;;;;;6.51;95.80;102655.69;4862530;29;20040;-89
2021/12/14 04:35:30;;;;;;;13.05;8.73;;;;;;;6.53;95.88;102648.69;4877367;29;20036;-90
2021/12/14 04:37:58;;;;;;;10.07;7.72;;;;;;;6.49;95.89;102645.09;4868710;29;20056;-89
2021/12/14 04:54:21;;;;;;;12.75;9.30;;;;;;;6.46;96.31;102638.03;4877085;29;20072;-90
2021/12/14 04:56:48;;;;;;;14.25;9.88;;;;;;;6.51;96.04;102642.53;4861723;29;20044;-89
2021/12/14 04:59:25;;;;;;;13.05;9.48;;;;;;;6.48;96.15;102638.09;4877434;29;20481;-89
2021/12/14 05:01:58;;;;;;;14.43;9.65;;;;;;;6.49;95.88;102636.34;4877257;29;20041;-89
2021/12/14 05:04:44;;;;;;;15.93;11.10;;;;;;;6.48;95.58;102635.44;4864451;29;20040;-89
2021/12/14 05:07:34;;;;;;;13.43;10.35;;;;;;;6.50;96.33;102644.25;4846332;29;20289;-89
2021/12/14 05:10:07;;;;;;;12.55;9.40;;;;;;;6.49;95.88;102634.59;4862460;29;20164;-89
2021/12/14 05:12:36;;;;;;;13.63;10.18;;;;;;;6.47;96.00;102626.63;4876205;29;20092;-89
2021/12/14 05:15:15;;;;;;;15.20;10.25;;;;;;;6.42;96.11;102623.00;4862866;29;20033;-89
2021/12/14 05:17:46;;;;;;;17.83;10.75;;;;;;;6.47;96.81;102626.63;4861976;29;20040;-89
2021/12/14 05:20:14;;;;;;;14.45;10.63;;;;;;;6.40;96.15;102615.94;4877518;29;20033;-90
2021/12/14 05:22:44;;;;;;;15.80;11.00;;;;;;;6.41;96.50;102620.38;4865252;29;20029;-89
2021/12/14 05:25:17;;;;;;;16.73;10.23;;;;;;;6.42;96.85;102616.88;4858645;29;20043;-89
2021/12/14 05:27:50;;;;;;;16.77;11.45;;;;;;;6.44;96.46;102618.69;4858485;29;20037;-89
2021/12/14 05:30:25;;;;;;;19.02;11.52;;;;;;;6.44;96.50;102616.03;4843032;29;20042;-89
2021/12/14 05:33:03;;;;;;;;;;;;;;;6.49;96.58;102612.66;4844384;29;20086;-90
2021/12/14 05:35:29;;;;;;;18.90;11.73;;;;;;;6.40;95.89;102615.94;4858204;29;19916;-89
2021/12/14 05:37:57;;;;;;;17.80;11.45;;;;;;;6.40;96.85;102616.81;4843325;29;20123;-89
2021/12/14 05:43:10;;;;;;;19.13;13.15;;;;;;;6.44;96.75;102621.31;4858411;29;20190;-89
2021/12/14 05:45:53;;;;;;;19.00;13.63;;;;;;;6.41;96.71;102623.88;4844274;29;20084;-89
2021/12/14 05:48:33;;;;;;;20.52;15.05;;;;;;;6.44;96.65;102634.47;4843342;29;20037;-89
2021/12/14 05:51:08;;;;;;;16.88;12.15;;;;;;;6.43;96.79;102630.06;4857926;29;20029;-88
2021/12/14 05:53:39;;;;;;;19.10;13.05;;;;;;;6.41;96.15;102631.78;4842425;29;20100;-89
2021/12/14 05:56:12;;;;;;;17.23;13.23;;;;;;;6.40;96.98;102629.97;4842926;29;20038;-89
2021/12/14 05:58:39;;;;;;;18.70;13.52;;;;;;;6.42;96.60;102638.81;4858506;29;20120;-89
2021/12/14 06:01:13;;;;;;;19.92;14.38;;;;;;;6.46;96.44;102645.03;4843154;29;20025;-89
2021/12/14 06:03:48;;;;;;;19.95;14.20;;;;;;;6.37;96.49;102627.28;4843366;29;20041;-89
2021/12/14 06:06:19;;;;;;;21.80;14.02;;;;;;;6.42;96.50;102636.16;4842850;29;20116;-89
2021/12/14 06:08:46;;;;;;;19.57;13.50;;;;;;;6.42;96.04;102633.53;4857857;29;20038;-89
2021/12/14 06:11:34;;;;;;;20.33;14.57;;;;;;;6.40;96.61;102644.88;4845307;29;20074;-89
2021/12/14 06:14:00;;;;;;;24.33;14.25;;;;;;;6.41;96.17;102638.78;4842215;29;20102;-89
2021/12/14 06:16:31;;;;;;;23.30;17.20;;;;;;;6.45;96.36;102659.94;4842276;29;20030;-89
2021/12/14 06:19:18;;;;;;;23.33;14.43;;;;;;;6.45;96.41;102656.41;4858164;29;20072;-89
2021/12/14 06:21:49;;;;;;;20.30;15.18;;;;;;;6.42;96.28;102665.13;4857784;29;20298;-89
2021/12/14 06:24:15;;;;;;;20.30;14.98;;;;;;;6.37;96.86;102650.06;4843407;29;20100;-90
2021/12/14 06:26:50;;;;;;;20.98;14.88;;;;;;;6.43;96.49;102666.03;4846164;29;20458;-89
2021/12/14 06:29:22;;;;;;;21.67;15.50;;;;;;;6.38;96.73;102658.03;4845974;29;20093;-89
2021/12/14 06:31:50;;;;;;;25.35;15.70;;;;;;;6.40;96.00;102653.66;4845707;29;20132;-89
2021/12/14 06:34:26;;;;;;;22.52;15.93;;;;;;;6.43;96.33;102655.50;4845829;29;20029;-89
2021/12/14 06:37:02;;;;;;;21.33;14.48;;;;;;;6.41;96.35;102655.44;4860560;29;20096;-89
2021/12/14 06:39:56;;;;;;;23.42;15.77;;;;;;;6.45;96.81;102659.03;4845875;29;20075;-89
2021/12/14 06:42:21;;;;;;;;;;;;;;;6.44;96.82;102658.16;4846278;29;20045;-89
2021/12/14 06:44:47;;;;;;;26.55;16.02;;;;;;;6.36;96.21;102650.94;4860954;29;19920;-88
2021/12/14 06:47:13;;;;;;;25.10;15.85;;;;;;;6.34;96.05;102655.28;4845708;29;20116;-89
2021/12/14 06:49:39;;;;;;;25.48;17.38;;;;;;;6.40;97.10;102673.81;4849865;29;20370;-89
2021/12/14 06:52:05;;;;;;;22.60;15.80;;;;;;;6.37;96.33;102677.28;4875783;29;20037;-89
2021/12/14 06:54:41;;;;;;;25.58;15.93;;;;;;;6.39;97.13;102679.97;4875735;29;20033;-89
2021/12/14 06:57:27;;;;;;;24.80;17.95;;;;;;;6.35;97.01;102673.72;4873193;29;20058;-89
2021/12/14 06:59:57;;;;;;;27.35;18.23;;;;;;;6.38;97.06;102689.59;4875607;29;20058;-89
2021/12/14 07:02:29;;;;;;;26.42;16.45;;;;;;;6.35;97.02;102676.34;4874597;29;20076;-89
2021/12/14 07:05:19;;;;;;;26.98;18.10;;;;;;;6.39;96.81;102683.47;4862469;29;20041;-89
2021/12/14 07:07:50;;;;;;;27.67;17.83;;;;;;;6.35;96.49;102683.34;4874863;29;20041;-89
2021/12/14 07:10:18;;;;;;;28.33;18.50;;;;;;;6.34;96.54;102681.59;4860495;29;20033;-89
2021/12/14 07:12:44;;;;;;;26.83;17.55;;;;;;;6.38;96.86;102694.88;4860185;29;20053;-89
2021/12/14 07:15:10;;;;;;;28.60;19.63;;;;;;;6.38;97.59;102701.84;4875722;29;20097;-89
2021/12/14 07:17:43;;;;;;;28.85;18.75;;;;;;;6.40;96.56;102705.41;4844783;29;20030;-89
2021/12/14 07:20:23;;;;;;;27.88;18.52;;;;;;;6.33;96.72;102696.50;4876012;29;20045;-89
2021/12/14 07:23:03;;;;;;;28.55;18.30;;;;;;;6.39;97.38;102707.16;4878645;29;20033;-89
2021/12/14 07:25:33;;;;;;;29.48;17.65;;;;;;;6.40;96.83;102718.56;4863667;29;20488;-89
2021/12/14 07:28:06;;;;;;;31.52;19.52;;;;;;;6.39;97.06;102715.03;4863211;29;20057;-89
2021/12/14 07:30:45;;;;;;;28.95;18.77;;;;;;;6.37;96.85;102708.84;4878580;29;20037;-89
2021/12/14 07:33:14;;;;;;;34.97;19.45;;;;;;;6.39;96.93;102717.69;4878789;29;20041;-89
2021/12/14 07:35:56;;;;;;;31.40;19.85;;;;;;;6.41;97.05;102723.88;4877993;29;20085;-89
2021/12/14 07:38:44;;;;;;;29.98;19.05;;;;;;;6.44;97.34;102731.84;4878456;29;20037;-89
2021/12/14 07:41:32;;;;;;;37.38;20.55;;;;;;;6.38;96.93;102723.81;4878402;29;20192;-89
2021/12/14 07:44:09;;;;;;;34.22;21.05;;;;;;;6.43;96.90;102732.72;4862724;29;20117;-89
2021/12/14 07:46:56;;;;;;;32.63;20.05;;;;;;;6.40;96.57;102739.63;4878178;29;20500;-89
2021/12/14 07:49:43;;;;;;;32.13;19.42;;;;;;;6.45;97.40;102740.63;4878110;29;20033;-90
2021/12/14 07:52:08;;;;;;;32.80;19.88;;;;;;;6.46;97.06;102745.06;4862541;29;20357;-89
2021/12/14 07:54:40;;;;;;;42.38;21.83;;;;;;;6.43;97.13;102737.97;4862582;29;20127;-90
2021/12/14 07:57:20;;;;;;;33.88;20.98;;;;;;;6.42;96.81;102736.16;4877849;29;20841;-89
2021/12/14 07:59:54;;;;;;;31.30;20.00;;;;;;;6.49;96.77;102753.03;4862678;29;20077;-90
2021/12/14 08:02:35;;;;;;;34.75;19.77;;;;;;;6.50;96.65;102746.00;4878389;29;20037;-90
2021/12/14 08:05:11;;;;;;;;;;;;;;;6.53;96.48;102751.34;4878399;29;20185;-90
2021/12/14 08:07:41;;;;;;;33.42;20.15;;;;;;;6.45;97.17;102744.16;4862625;29;19971;-89
2021/12/14 08:10:14;;;;;;;32.58;19.23;;;;;;;6.49;96.40;102754.78;4879244;29;20081;-89
2021/12/14 08:12:42;;;;;;;35.92;20.63;;;;;;;6.51;96.63;102753.06;4862640;29;20037;-89
2021/12/14 08:15:20;;;;;;;37.83;22.05;;;;;;;6.51;96.96;102756.59;4877975;29;20040;-90
2021/12/14 08:17:57;;;;;;;35.85;22.10;;;;;;;6.49;97.07;102763.56;4877951;29;20033;-89
2021/12/14 08:20:23;;;;;;;37.30;21.75;;;;;;;6.51;97.08;102753.06;4862178;29;20036;-89
2021/12/14 08:22:49;;;;;;;35.67;21.35;;;;;;;6.48;96.62;102753.88;4867032;29;20053;-89
2021/12/14 08:25:21;;;;;;;38.47;23.75;;;;;;;6.49;96.94;102753.03;4828734;29;20460;-89
2021/12/14 08:28:00;;;;;;;33.05;21.10;;;;;;;6.53;97.11;102762.78;4859043;29;20104;-89
2021/12/14 08:30:26;;;;;;;43.67;22.92;;;;;;;6.53;97.13;102759.25;4843347;29;20074;-89
2021/12/14 08:32:52;;;;;;;37.28;23.48;;;;;;;6.43;96.81;102743.22;4843799;29;20498;-90
2021/12/14 08:35:18;;;;;;;38.78;21.35;;;;;;;6.53;96.88;102757.53;4858793;29;20097;-89
2021/12/14 08:37:51;;;;;;;35.60;21.77;;;;;;;6.52;97.11;102760.09;4843175;29;20090;-89
2021/12/14 08:40:28;;;;;;;44.28;24.60;;;;;;;6.50;96.67;102752.16;4858775;29;20045;-89
2021/12/14 08:43:02;;;;;;;36.92;23.65;;;;;;;6.60;96.47;102766.44;4852457;29;20037;-89
2021/12/14 08:46:00;;;;;;;39.72;24.30;;;;;;;6.58;97.07;102758.53;4876848;29;20148;-89
2021/12/14 08:48:31;;;;;;;41.55;25.38;;;;;;;6.61;96.16;102762.97;4860432;29;20053;-88
2021/12/14 08:51:15;;;;;;;37.60;23.02;;;;;;;6.58;97.01;102755.91;4844221;29;20068;-89
2021/12/14 08:54:09;;;;;;;37.40;22.45;;;;;;;6.60;96.44;102767.38;4843241;29;20044;-89
2021/12/14 08:56:42;;;;;;;40.00;23.77;;;;;;;6.70;96.43;102773.75;4854029;29;20133;-89
2021/12/14 08:59:09;;;;;;;36.85;22.15;;;;;;;6.63;96.41;102759.53;4843009;29;20082;-89
2021/12/14 09:01:38;;;;;;;44.70;25.33;;;;;;;6.71;96.90;102769.38;4842955;29;20054;-89
2021/12/14 09:04:19;;;;;;;44.53;25.77;;;;;;;6.74;95.95;102769.44;4859620;29;20076;-89
2021/12/14 09:06:48;;;;;;;40.70;24.33;;;;;;;6.77;95.77;102772.13;4858364;29;20037;-89
2021/12/14 09:09:16;;;;;;;38.42;22.77;;;;;;;6.74;96.36;102766.81;4858475;29;20068;-90
2021/12/14 09:11:45;;;;;;;41.03;23.00;;;;;;;6.77;96.69;102764.25;4858700;29;20045;-90
2021/12/14 09:14:13;;;;;;;37.70;23.85;;;;;;;6.82;95.97;102768.75;4858575;29;20505;-90
2021/12/14 09:16:41;;;;;;;41.13;23.48;;;;;;;6.91;96.14;102776.00;4859577;29;20034;-89
2021/12/14 09:19:23;;;;;;;39.28;25.58;;;;;;;6.90;95.53;102779.50;4858448;29;20161;-90
2021/12/14 09:21:52;;;;;;;40.33;23.95;;;;;;;6.89;96.23;102775.97;4843018;29;20043;-90
2021/12/14 09:24:22;;;;;;;39.60;24.77;;;;;;;6.93;96.06;102781.31;4858383;29;20093;-90
2021/12/14 09:26:54;;;;;;;40.15;24.75;;;;;;;6.92;96.33;102771.63;4858119;29;20034;-90
2021/12/14 09:29:24;;;;;;;34.63;22.00;;;;;;;6.91;95.43;102768.09;4858143;29;20076;-90
2021/12/14 09:31:58;;;;;;;44.17;26.85;;;;;;;6.95;96.01;102775.25;4858311;29;20053;-89
2021/12/14 09:34:33;;;;;;;35.78;24.20;;;;;;;7.00;95.21;102775.34;4863019;29;20042;-89
2021/12/14 09:37:00;;;;;;;42.95;24.77;;;;;;;7.00;96.10;102776.25;4844535;29;20049;-90
2021/12/14 09:39:32;;;;;;;51.95;26.83;;;;;;;7.02;95.33;102781.53;4859169;29;20033;-89
2021/12/14 09:42:02;;;;;;;43.58;26.80;;;;;;;7.04;95.53;102772.78;4858043;29;20057;-90
2021/12/14 09:44:30;;;;;;;42.38;25.70;;;;;;;7.05;95.48;102766.69;4857882;29;20498;-90
2021/12/14 09:47:00;;;;;;;41.58;26.15;;;;;;;7.13;95.60;102776.53;4842748;29;20057;-90
2021/12/14 09:49:26;;;;;;;39.70;24.98;;;;;;;7.10;95.81;102759.78;4842718;29;20030;-90
2021/12/14 09:51:56;;;;;;;43.90;26.80;;;;;;;7.10;95.14;102757.16;4857899;29;20105;-90
2021/12/14 09:54:24;;;;;;;38.50;24.33;;;;;;;7.17;95.43;102762.56;4842460;29;20124;-90
2021/12/14 09:57:01;;;;;;;43.50;25.55;;;;;;;7.16;94.91;102755.50;4842172;29;20033;-90
2021/12/14 09:59:27;;;;;;;39.17;25.00;;;;;;;7.18;95.69;102762.59;4843772;29;20041;-90
2021/12/14 10:02:05;;;;;;;40.67;24.73;;;;;;;7.22;95.66;102772.38;4846007;29;20040;-90
2021/12/14 10:04:40;;;;;;;44.13;25.33;;;;;;;7.27;95.77;102772.44;4861620;29;20037;-90
2021/12/14 10:07:08;;;;;;;42.15;25.98;;;;;;;7.25;95.17;102764.53;4861133;29;20045;-90
2021/12/14 10:09:41;;;;;;;42.97;26.55;;;;;;;7.32;95.23;102771.72;4846186;29;20049;-89
2021/12/14 10:14:53;;;;;;;46.35;27.58;;;;;;;7.39;95.46;102777.09;4861377;29;20467;-90
2021/12/14 10:17:24;;;;;;;42.38;25.25;;;;;;;7.40;95.30;102774.50;4861253;29;20029;-90
2021/12/14 10:19:49;;;;;;;41.17;24.98;;;;;;;7.43;95.15;102774.56;4862766;29;20041;-90
2021/12/14 10:22:23;;;;;;;45.97;25.90;;;;;;;7.46;94.64;102779.91;4846061;29;20085;-90
2021/12/14 10:24:55;;;;;;;41.53;26.35;;;;;;;7.47;94.95;102773.78;4861194;29;20041;-90
2021/12/14 10:27:24;;;;;;;40.35;23.88;;;;;;;7.50;94.97;102779.13;4846304;29;20132;-90
2021/12/14 10:29:51;;;;;;;42.40;26.60;;;;;;;7.46;94.54;102771.13;4861249;29;20454;-90
2021/12/14 10:32:22;;;;;;;41.78;25.73;;;;;;;7.52;94.76;102781.81;4861456;29;20041;-90
2021/12/14 10:34:53;;;;;;;44.67;26.60;;;;;;;7.50;94.99;102780.88;4845742;29;20499;-90
2021/12/14 10:37:25;;;;;;;48.35;24.58;;;;;;;7.57;94.58;102789.78;4861028;29;20105;-90
2021/12/14 10:42:54;;;;;;;40.80;25.05;;;;;;;7.59;94.61;102786.38;4861262;29;20474;-90
2021/12/14 10:45:28;;;;;;;43.53;25.93;;;;;;;7.59;94.71;102783.72;4860567;29;20060;-90
2021/12/14 10:47:57;;;;;;;49.50;27.52;;;;;;;7.57;94.80;102773.97;4845450;29;20290;-90
2021/12/14 10:50:28;;;;;;;44.92;25.45;;;;;;;7.60;94.35;102772.31;4855080;29;20025;-90
2021/12/14 10:52:54;;;;;;;40.35;24.55;;;;;;;7.65;93.98;102775.03;4862284;29;20124;-90
2021/12/14 10:55:25;;;;;;;50.53;25.92;;;;;;;7.61;95.16;102765.28;4845138;29;20120;-90
2021/12/14 10:57:51;;;;;;;;;;;;;;;7.79;94.45;102772.69;4860924;29;20389;-90
2021/12/14 11:00:30;;;;;;;43.53;25.83;;;;;;;7.70;94.36;102773.41;4875859;29;20007;-90
2021/12/14 11:03:08;;;;;;;45.97;24.38;;;;;;;7.71;94.59;102768.13;4860319;29;20037;-90
2021/12/14 11:05:36;;;;;;;42.17;24.60;;;;;;;7.70;94.39;102768.13;4860878;29;20103;-90
2021/12/14 11:08:04;;;;;;;42.20;24.40;;;;;;;7.72;94.37;102769.94;4862105;29;20026;-90
2021/12/14 11:10:37;;;;;;;38.88;23.30;;;;;;;7.73;94.35;102758.50;4859603;29;20076;-89
2021/12/14 11:13:07;;;;;;;42.83;26.67;;;;;;;7.80;94.77;102763.94;4860233;29;20041;-89
2021/12/14 11:15:37;;;;;;;46.53;26.67;;;;;;;7.78;94.30;102760.38;4845242;29;20047;-90
2021/12/14 11:18:15;;;;;;;42.63;26.40;;;;;;;7.84;94.13;102765.75;4860039;29;20100;-90
2021/12/14 11:20:55;;;;;;;47.38;26.73;;;;;;;7.80;94.63;102743.72;4844329;29;20041;-90
2021/12/14 11:23:28;;;;;;;44.13;25.50;;;;;;;7.88;94.24;102743.84;4859994;29;20056;-90
2021/12/14 11:26:06;;;;;;;41.53;24.67;;;;;;;7.93;94.23;102747.47;4859776;29;20048;-90
2021/12/14 11:28:37;;;;;;;39.30;22.67;;;;;;;7.96;93.44;102743.16;4859539;29;20132;-90
2021/12/14 11:31:23;;;;;;;48.33;26.83;;;;;;;8.02;94.16;102749.41;4860047;29;20410;-89
2021/12/14 11:33:57;;;;;;;45.88;27.98;;;;;;;8.00;94.30;102746.75;4859869;29;20041;-90
2021/12/14 11:36:22;;;;;;;50.30;27.08;;;;;;;8.06;93.79;102740.69;4875167;29;20042;-90
2021/12/14 11:38:53;;;;;;;46.90;26.98;;;;;;;8.07;93.38;102743.34;4862019;29;20035;-90
2021/12/14 11:41:24;;;;;;;51.85;27.17;;;;;;;8.01;93.73;102722.16;4878117;29;20089;-90
2021/12/14 11:44:06;;;;;;;51.78;28.52;;;;;;;8.09;93.96;102735.50;4862813;29;20454;-90
2021/12/14 11:46:33;;;;;;;53.35;32.63;;;;;;;8.10;93.44;102739.88;4878384;29;20478;-90
2021/12/14 11:49:03;;;;;;;56.10;33.92;;;;;;;8.12;93.52;102741.69;4878019;29;20478;-90
2021/12/14 11:51:30;;;;;;;49.33;29.23;;;;;;;8.12;93.20;102741.69;4877764;29;20037;-90
2021/12/14 11:53:58;;;;;;;54.08;30.35;;;;;;;8.17;93.87;102744.44;4878307;29;20085;-90
2021/12/14 11:56:28;;;;;;;54.28;29.73;;;;;;;8.19;93.64;102745.34;4878425;29;20103;-90
2021/12/14 11:58:57;;;;;;;51.72;29.65;;;;;;;8.15;92.95;102732.94;4878159;29;20044;-90
2021/12/14 12:01:31;;;;;;;57.03;32.75;;;;;;;8.16;93.76;102740.91;4862208;29;20047;-90
2021/12/14 12:04:06;;;;;;;53.60;30.45;;;;;;;8.24;93.08;102746.31;4877723;29;20101;-90
2021/12/14 12:09:42;;;;;;;55.83;32.15;;;;;;;8.18;93.06;102744.47;4878075;29;20043;-90
2021/12/14 12:12:30;;;;;;;51.88;30.17;;;;;;;8.16;92.94;102745.31;4862324;29;20119;-90
2021/12/14 12:15:02;;;;;;;58.53;33.00;;;;;;;8.19;93.81;102750.63;4877716;29;20041;-91